sensor_id;sensor_type;location;lat;lon;timestamp;P1;durP1;ratioP1;P2;durP2;ratioP2
55720;SDS011;41626;53.098;6.168;2022-12-18T00:01:01;81.18;;;47.17;;
55720;SDS011;41626;53.098;6.168;2022-12-18T00:03:34;94.43;;;52.45;;
55720;SDS011;41626;53.098;6.168;2022-12-18T00:06:00;89.57;;;49.42;;
55720;SDS011;41626;53.098;6.168;2022-12-18T00:08:27;85.07;;;47.47;;
55720;SDS011;41626;53.098;6.168;2022-12-18T00:10:53;85.03;;;50.03;;
55720;SDS011;41626;53.098;6.168;2022-12-18T00:13:19;88.55;;;48.80;;
55720;SDS011;41626;53.098;6.168;2022-12-18T00:15:44;82.05;;;47.20;;
55720;SDS011;41626;53.098;6.168;2022-12-18T00:18:10;81.18;;;44.90;;
55720;SDS011;41626;53.098;6.168;2022-12-18T00:20:36;80.00;;;44.87;;
55720;SDS011;41626;53.098;6.168;2022-12-18T00:23:03;85.15;;;46.83;;
55720;SDS011;41626;53.098;6.168;2022-12-18T00:25:32;81.80;;;48.40;;
55720;SDS011;41626;53.098;6.168;2022-12-18T00:28:01;90.18;;;49.60;;
55720;SDS011;41626;53.098;6.168;2022-12-18T00:30:28;86.78;;;49.40;;
55720;SDS011;41626;53.098;6.168;2022-12-18T00:32:54;87.20;;;48.90;;
55720;SDS011;41626;53.098;6.168;2022-12-18T00:35:19;89.65;;;49.42;;
55720;SDS011;41626;53.098;6.168;2022-12-18T00:37:45;87.38;;;48.95;;
55720;SDS011;41626;53.098;6.168;2022-12-18T00:40:11;82.47;;;45.10;;
55720;SDS011;41626;53.098;6.168;2022-12-18T00:42:37;86.38;;;46.53;;
55720;SDS011;41626;53.098;6.168;2022-12-18T00:45:22;82.10;;;47.30;;
55720;SDS011;41626;53.098;6.168;2022-12-18T00:47:53;86.88;;;46.92;;
55720;SDS011;41626;53.098;6.168;2022-12-18T00:50:19;82.43;;;45.97;;
55720;SDS011;41626;53.098;6.168;2022-12-18T00:52:45;81.83;;;44.70;;
55720;SDS011;41626;53.098;6.168;2022-12-18T00:55:12;82.53;;;46.88;;
55720;SDS011;41626;53.098;6.168;2022-12-18T00:57:38;83.07;;;45.42;;
55720;SDS011;41626;53.098;6.168;2022-12-18T01:00:04;81.47;;;46.97;;
55720;SDS011;41626;53.098;6.168;2022-12-18T01:02:33;80.80;;;46.00;;
55720;SDS011;41626;53.098;6.168;2022-12-18T01:04:58;86.35;;;49.00;;
55720;SDS011;41626;53.098;6.168;2022-12-18T01:07:24;90.05;;;48.78;;
55720;SDS011;41626;53.098;6.168;2022-12-18T01:09:49;82.15;;;47.33;;
55720;SDS011;41626;53.098;6.168;2022-12-18T01:12:15;86.53;;;46.58;;
55720;SDS011;41626;53.098;6.168;2022-12-18T01:14:41;88.43;;;46.80;;
55720;SDS011;41626;53.098;6.168;2022-12-18T01:17:06;89.47;;;46.87;;
55720;SDS011;41626;53.098;6.168;2022-12-18T01:19:32;85.00;;;45.07;;
55720;SDS011;41626;53.098;6.168;2022-12-18T01:21:58;83.80;;;45.95;;
55720;SDS011;41626;53.098;6.168;2022-12-18T01:24:24;81.38;;;45.72;;
55720;SDS011;41626;53.098;6.168;2022-12-18T01:26:50;81.67;;;46.60;;
55720;SDS011;41626;53.098;6.168;2022-12-18T01:29:15;83.27;;;44.67;;
55720;SDS011;41626;53.098;6.168;2022-12-18T01:31:41;79.70;;;45.20;;
55720;SDS011;41626;53.098;6.168;2022-12-18T01:34:06;80.18;;;42.67;;
55720;SDS011;41626;53.098;6.168;2022-12-18T01:36:34;75.90;;;41.20;;
55720;SDS011;41626;53.098;6.168;2022-12-18T01:39:02;69.72;;;40.40;;
55720;SDS011;41626;53.098;6.168;2022-12-18T01:41:30;79.88;;;46.03;;
55720;SDS011;41626;53.098;6.168;2022-12-18T01:50:13;84.10;;;44.95;;
55720;SDS011;41626;53.098;6.168;2022-12-18T01:52:43;74.47;;;43.90;;
55720;SDS011;41626;53.098;6.168;2022-12-18T01:55:38;84.68;;;46.00;;
55720;SDS011;41626;53.098;6.168;2022-12-18T01:58:10;78.28;;;42.72;;
55720;SDS011;41626;53.098;6.168;2022-12-18T02:00:36;76.17;;;43.70;;
55720;SDS011;41626;53.098;6.168;2022-12-18T02:03:01;81.70;;;45.33;;
55720;SDS011;41626;53.098;6.168;2022-12-18T02:05:44;76.90;;;41.10;;
55720;SDS011;41626;53.098;6.168;2022-12-18T02:08:30;73.25;;;40.35;;
55720;SDS011;41626;53.098;6.168;2022-12-18T02:13:50;69.80;;;40.45;;
55720;SDS011;41626;53.098;6.168;2022-12-18T02:29:29;79.60;;;42.75;;
55720;SDS011;41626;53.098;6.168;2022-12-18T02:31:59;78.90;;;40.05;;
55720;SDS011;41626;53.098;6.168;2022-12-18T02:34:29;68.40;;;39.78;;
55720;SDS011;41626;53.098;6.168;2022-12-18T02:36:58;77.07;;;41.58;;
55720;SDS011;41626;53.098;6.168;2022-12-18T02:39:26;82.18;;;46.03;;
55720;SDS011;41626;53.098;6.168;2022-12-18T02:41:55;80.13;;;44.50;;
55720;SDS011;41626;53.098;6.168;2022-12-18T02:44:22;84.18;;;45.00;;
55720;SDS011;41626;53.098;6.168;2022-12-18T02:46:49;90.83;;;45.57;;
55720;SDS011;41626;53.098;6.168;2022-12-18T02:49:21;89.50;;;46.90;;
55720;SDS011;41626;53.098;6.168;2022-12-18T02:55:04;86.10;;;45.03;;
55720;SDS011;41626;53.098;6.168;2022-12-18T03:00:14;84.00;;;45.95;;
55720;SDS011;41626;53.098;6.168;2022-12-18T03:02:56;80.90;;;43.92;;
55720;SDS011;41626;53.098;6.168;2022-12-18T03:05:51;83.68;;;45.47;;
55720;SDS011;41626;53.098;6.168;2022-12-18T03:08:23;85.13;;;46.50;;
55720;SDS011;41626;53.098;6.168;2022-12-18T03:11:02;86.63;;;46.00;;
55720;SDS011;41626;53.098;6.168;2022-12-18T03:13:39;88.25;;;47.88;;
55720;SDS011;41626;53.098;6.168;2022-12-18T03:16:10;88.57;;;46.75;;
55720;SDS011;41626;53.098;6.168;2022-12-18T03:18:45;82.70;;;45.80;;
55720;SDS011;41626;53.098;6.168;2022-12-18T03:21:15;87.47;;;47.05;;
55720;SDS011;41626;53.098;6.168;2022-12-18T03:23:45;90.47;;;45.80;;
55720;SDS011;41626;53.098;6.168;2022-12-18T03:26:15;89.90;;;49.30;;
55720;SDS011;41626;53.098;6.168;2022-12-18T03:28:45;85.47;;;46.97;;
55720;SDS011;41626;53.098;6.168;2022-12-18T03:31:16;86.75;;;48.08;;
55720;SDS011;41626;53.098;6.168;2022-12-18T03:36:19;87.40;;;44.35;;
55720;SDS011;41626;53.098;6.168;2022-12-18T03:38:44;81.97;;;46.43;;
55720;SDS011;41626;53.098;6.168;2022-12-18T03:41:28;86.40;;;49.00;;
55720;SDS011;41626;53.098;6.168;2022-12-18T03:44:21;77.65;;;45.63;;
55720;SDS011;41626;53.098;6.168;2022-12-18T03:49:39;87.05;;;47.90;;
55720;SDS011;41626;53.098;6.168;2022-12-18T03:54:50;76.78;;;43.60;;
55720;SDS011;41626;53.098;6.168;2022-12-18T03:57:24;76.80;;;42.27;;
55720;SDS011;41626;53.098;6.168;2022-12-18T03:59:54;77.65;;;44.15;;
55720;SDS011;41626;53.098;6.168;2022-12-18T04:02:22;78.85;;;45.38;;
55720;SDS011;41626;53.098;6.168;2022-12-18T04:04:50;80.03;;;43.78;;
55720;SDS011;41626;53.098;6.168;2022-12-18T04:07:23;77.10;;;42.55;;
55720;SDS011;41626;53.098;6.168;2022-12-18T04:09:49;77.15;;;44.38;;
55720;SDS011;41626;53.098;6.168;2022-12-18T04:12:18;73.60;;;42.83;;
55720;SDS011;41626;53.098;6.168;2022-12-18T04:14:44;77.77;;;42.93;;
55720;SDS011;41626;53.098;6.168;2022-12-18T04:17:09;75.60;;;42.15;;
55720;SDS011;41626;53.098;6.168;2022-12-18T04:19:35;74.07;;;44.17;;
55720;SDS011;41626;53.098;6.168;2022-12-18T04:22:01;71.80;;;42.13;;
55720;SDS011;41626;53.098;6.168;2022-12-18T04:24:26;72.53;;;41.43;;
55720;SDS011;41626;53.098;6.168;2022-12-18T04:26:52;69.27;;;39.90;;
55720;SDS011;41626;53.098;6.168;2022-12-18T04:29:18;71.77;;;40.97;;
55720;SDS011;41626;53.098;6.168;2022-12-18T04:31:43;71.47;;;39.97;;
55720;SDS011;41626;53.098;6.168;2022-12-18T04:34:09;72.63;;;40.90;;
55720;SDS011;41626;53.098;6.168;2022-12-18T04:36:34;67.47;;;38.97;;
55720;SDS011;41626;53.098;6.168;2022-12-18T04:39:00;66.63;;;39.13;;
55720;SDS011;41626;53.098;6.168;2022-12-18T04:41:26;66.83;;;36.57;;
55720;SDS011;41626;53.098;6.168;2022-12-18T04:43:51;67.13;;;39.00;;
55720;SDS011;41626;53.098;6.168;2022-12-18T04:46:17;71.10;;;39.83;;
55720;SDS011;41626;53.098;6.168;2022-12-18T04:48:44;66.22;;;36.40;;
55720;SDS011;41626;53.098;6.168;2022-12-18T04:51:10;62.22;;;36.08;;
55720;SDS011;41626;53.098;6.168;2022-12-18T04:53:36;64.22;;;37.88;;
55720;SDS011;41626;53.098;6.168;2022-12-18T04:56:06;66.38;;;37.40;;
55720;SDS011;41626;53.098;6.168;2022-12-18T04:58:36;69.75;;;36.80;;
55720;SDS011;41626;53.098;6.168;2022-12-18T05:01:04;61.90;;;36.10;;
55720;SDS011;41626;53.098;6.168;2022-12-18T05:03:30;59.17;;;34.00;;
55720;SDS011;41626;53.098;6.168;2022-12-18T05:05:56;61.95;;;34.50;;
55720;SDS011;41626;53.098;6.168;2022-12-18T05:08:22;66.83;;;36.33;;
55720;SDS011;41626;53.098;6.168;2022-12-18T05:10:48;59.13;;;32.90;;
55720;SDS011;41626;53.098;6.168;2022-12-18T05:13:14;57.30;;;34.85;;
55720;SDS011;41626;53.098;6.168;2022-12-18T05:15:39;55.03;;;32.97;;
55720;SDS011;41626;53.098;6.168;2022-12-18T05:18:07;56.55;;;32.22;;
55720;SDS011;41626;53.098;6.168;2022-12-18T05:20:33;56.67;;;32.10;;
55720;SDS011;41626;53.098;6.168;2022-12-18T05:22:58;50.63;;;31.65;;
55720;SDS011;41626;53.098;6.168;2022-12-18T05:25:24;59.15;;;31.88;;
55720;SDS011;41626;53.098;6.168;2022-12-18T05:27:50;56.85;;;32.97;;
55720;SDS011;41626;53.098;6.168;2022-12-18T05:30:15;54.80;;;31.63;;
55720;SDS011;41626;53.098;6.168;2022-12-18T05:32:41;57.83;;;32.60;;
55720;SDS011;41626;53.098;6.168;2022-12-18T05:35:08;57.57;;;33.87;;
55720;SDS011;41626;53.098;6.168;2022-12-18T05:37:35;60.15;;;31.58;;
55720;SDS011;41626;53.098;6.168;2022-12-18T05:40:01;55.80;;;30.10;;
55720;SDS011;41626;53.098;6.168;2022-12-18T05:42:28;58.92;;;33.45;;
55720;SDS011;41626;53.098;6.168;2022-12-18T05:44:54;51.17;;;30.35;;
55720;SDS011;41626;53.098;6.168;2022-12-18T05:47:19;60.42;;;32.88;;
55720;SDS011;41626;53.098;6.168;2022-12-18T05:49:45;54.30;;;30.13;;
55720;SDS011;41626;53.098;6.168;2022-12-18T05:52:10;58.50;;;32.83;;
55720;SDS011;41626;53.098;6.168;2022-12-18T05:54:36;55.83;;;29.83;;
55720;SDS011;41626;53.098;6.168;2022-12-18T05:57:02;64.07;;;32.30;;
55720;SDS011;41626;53.098;6.168;2022-12-18T05:59:27;54.17;;;33.10;;
55720;SDS011;41626;53.098;6.168;2022-12-18T06:01:53;54.47;;;31.93;;
55720;SDS011;41626;53.098;6.168;2022-12-18T06:04:19;56.47;;;32.13;;
55720;SDS011;41626;53.098;6.168;2022-12-18T06:06:44;58.63;;;32.22;;
55720;SDS011;41626;53.098;6.168;2022-12-18T06:09:10;56.30;;;31.55;;
55720;SDS011;41626;53.098;6.168;2022-12-18T06:11:37;57.95;;;32.45;;
55720;SDS011;41626;53.098;6.168;2022-12-18T06:14:03;53.58;;;30.92;;
55720;SDS011;41626;53.098;6.168;2022-12-18T06:16:30;57.03;;;30.73;;
55720;SDS011;41626;53.098;6.168;2022-12-18T06:18:57;55.90;;;32.45;;
55720;SDS011;41626;53.098;6.168;2022-12-18T06:21:28;54.53;;;31.63;;
55720;SDS011;41626;53.098;6.168;2022-12-18T06:23:54;53.13;;;30.05;;
55720;SDS011;41626;53.098;6.168;2022-12-18T06:26:20;55.20;;;31.85;;
55720;SDS011;41626;53.098;6.168;2022-12-18T06:28:46;49.15;;;29.08;;
55720;SDS011;41626;53.098;6.168;2022-12-18T06:31:12;53.30;;;30.00;;
55720;SDS011;41626;53.098;6.168;2022-12-18T06:33:37;54.53;;;29.10;;
55720;SDS011;41626;53.098;6.168;2022-12-18T06:36:05;55.10;;;32.30;;
55720;SDS011;41626;53.098;6.168;2022-12-18T06:38:33;51.40;;;29.40;;
55720;SDS011;41626;53.098;6.168;2022-12-18T06:40:59;51.75;;;28.55;;
55720;SDS011;41626;53.098;6.168;2022-12-18T06:43:25;50.67;;;30.20;;
55720;SDS011;41626;53.098;6.168;2022-12-18T06:45:51;56.67;;;28.57;;
55720;SDS011;41626;53.098;6.168;2022-12-18T06:48:22;50.85;;;27.73;;
55720;SDS011;41626;53.098;6.168;2022-12-18T06:50:48;47.60;;;27.27;;
55720;SDS011;41626;53.098;6.168;2022-12-18T06:53:13;48.90;;;27.70;;
55720;SDS011;41626;53.098;6.168;2022-12-18T06:55:40;55.50;;;29.40;;
55720;SDS011;41626;53.098;6.168;2022-12-18T06:58:05;50.25;;;26.92;;
55720;SDS011;41626;53.098;6.168;2022-12-18T07:00:31;50.95;;;27.80;;
55720;SDS011;41626;53.098;6.168;2022-12-18T07:02:57;49.97;;;27.47;;
55720;SDS011;41626;53.098;6.168;2022-12-18T07:05:22;48.17;;;27.40;;
55720;SDS011;41626;53.098;6.168;2022-12-18T07:07:48;50.40;;;29.08;;
55720;SDS011;41626;53.098;6.168;2022-12-18T07:10:14;46.17;;;25.95;;
55720;SDS011;41626;53.098;6.168;2022-12-18T07:12:40;50.53;;;26.80;;
55720;SDS011;41626;53.098;6.168;2022-12-18T07:15:06;49.10;;;26.35;;
55720;SDS011;41626;53.098;6.168;2022-12-18T07:17:32;54.13;;;26.90;;
55720;SDS011;41626;53.098;6.168;2022-12-18T07:19:58;48.80;;;27.75;;
55720;SDS011;41626;53.098;6.168;2022-12-18T07:22:24;49.90;;;26.27;;
55720;SDS011;41626;53.098;6.168;2022-12-18T07:24:50;44.60;;;25.30;;
55720;SDS011;41626;53.098;6.168;2022-12-18T07:27:16;43.35;;;23.67;;
55720;SDS011;41626;53.098;6.168;2022-12-18T07:29:42;43.90;;;24.52;;
55720;SDS011;41626;53.098;6.168;2022-12-18T07:32:08;47.53;;;24.70;;
55720;SDS011;41626;53.098;6.168;2022-12-18T07:34:33;42.93;;;24.57;;
55720;SDS011;41626;53.098;6.168;2022-12-18T07:36:59;44.92;;;26.25;;
55720;SDS011;41626;53.098;6.168;2022-12-18T07:39:25;46.70;;;24.42;;
55720;SDS011;41626;53.098;6.168;2022-12-18T07:41:51;38.72;;;22.63;;
55720;SDS011;41626;53.098;6.168;2022-12-18T07:44:35;42.20;;;23.08;;
55720;SDS011;41626;53.098;6.168;2022-12-18T07:47:01;39.30;;;21.92;;
55720;SDS011;41626;53.098;6.168;2022-12-18T07:49:28;39.45;;;22.00;;
55720;SDS011;41626;53.098;6.168;2022-12-18T07:51:56;32.80;;;20.48;;
55720;SDS011;41626;53.098;6.168;2022-12-18T07:54:23;38.65;;;20.85;;
55720;SDS011;41626;53.098;6.168;2022-12-18T07:56:49;40.22;;;23.55;;
55720;SDS011;41626;53.098;6.168;2022-12-18T07:59:15;38.78;;;22.90;;
55720;SDS011;41626;53.098;6.168;2022-12-18T08:01:41;37.10;;;23.05;;
55720;SDS011;41626;53.098;6.168;2022-12-18T08:04:06;37.47;;;23.47;;
55720;SDS011;41626;53.098;6.168;2022-12-18T08:06:32;36.37;;;21.73;;
55720;SDS011;41626;53.098;6.168;2022-12-18T08:08:58;37.85;;;21.95;;
55720;SDS011;41626;53.098;6.168;2022-12-18T08:11:24;36.63;;;23.08;;
55720;SDS011;41626;53.098;6.168;2022-12-18T08:13:51;35.33;;;23.58;;
55720;SDS011;41626;53.098;6.168;2022-12-18T08:16:17;35.03;;;20.95;;
55720;SDS011;41626;53.098;6.168;2022-12-18T08:18:43;35.05;;;21.77;;
55720;SDS011;41626;53.098;6.168;2022-12-18T08:21:13;34.73;;;20.60;;
55720;SDS011;41626;53.098;6.168;2022-12-18T08:23:44;32.25;;;20.55;;
55720;SDS011;41626;53.098;6.168;2022-12-18T08:26:10;34.45;;;20.52;;
55720;SDS011;41626;53.098;6.168;2022-12-18T08:28:36;36.15;;;20.38;;
55720;SDS011;41626;53.098;6.168;2022-12-18T08:31:02;31.43;;;20.17;;
55720;SDS011;41626;53.098;6.168;2022-12-18T08:33:28;33.33;;;20.73;;
55720;SDS011;41626;53.098;6.168;2022-12-18T08:35:54;34.58;;;20.85;;
55720;SDS011;41626;53.098;6.168;2022-12-18T08:38:20;31.20;;;19.60;;
55720;SDS011;41626;53.098;6.168;2022-12-18T08:40:47;33.00;;;20.30;;
55720;SDS011;41626;53.098;6.168;2022-12-18T08:43:13;32.37;;;19.30;;
55720;SDS011;41626;53.098;6.168;2022-12-18T08:45:57;30.98;;;19.35;;
55720;SDS011;41626;53.098;6.168;2022-12-18T08:48:23;30.37;;;19.80;;
55720;SDS011;41626;53.098;6.168;2022-12-18T08:51:06;31.00;;;19.50;;
55720;SDS011;41626;53.098;6.168;2022-12-18T08:53:34;26.00;;;17.63;;
55720;SDS011;41626;53.098;6.168;2022-12-18T08:56:00;30.55;;;20.42;;
55720;SDS011;41626;53.098;6.168;2022-12-18T08:58:26;27.50;;;17.67;;
55720;SDS011;41626;53.098;6.168;2022-12-18T09:00:52;29.55;;;17.70;;
55720;SDS011;41626;53.098;6.168;2022-12-18T09:03:18;27.55;;;18.48;;
55720;SDS011;41626;53.098;6.168;2022-12-18T09:05:47;27.35;;;17.63;;
55720;SDS011;41626;53.098;6.168;2022-12-18T09:08:13;26.48;;;16.90;;
55720;SDS011;41626;53.098;6.168;2022-12-18T09:10:42;27.27;;;16.98;;
55720;SDS011;41626;53.098;6.168;2022-12-18T09:13:10;26.80;;;17.52;;
55720;SDS011;41626;53.098;6.168;2022-12-18T09:15:40;27.55;;;18.17;;
55720;SDS011;41626;53.098;6.168;2022-12-18T09:18:17;27.75;;;17.58;;
55720;SDS011;41626;53.098;6.168;2022-12-18T09:20:44;27.55;;;17.63;;
55720;SDS011;41626;53.098;6.168;2022-12-18T09:23:10;24.50;;;18.23;;
55720;SDS011;41626;53.098;6.168;2022-12-18T09:25:36;25.48;;;17.40;;
55720;SDS011;41626;53.098;6.168;2022-12-18T09:28:04;24.63;;;17.27;;
55720;SDS011;41626;53.098;6.168;2022-12-18T09:30:31;21.90;;;14.57;;
55720;SDS011;41626;53.098;6.168;2022-12-18T09:32:59;25.90;;;17.13;;
55720;SDS011;41626;53.098;6.168;2022-12-18T09:35:25;23.13;;;15.82;;
55720;SDS011;41626;53.098;6.168;2022-12-18T09:37:52;22.58;;;15.60;;
55720;SDS011;41626;53.098;6.168;2022-12-18T09:40:19;23.65;;;16.80;;
55720;SDS011;41626;53.098;6.168;2022-12-18T09:42:56;22.20;;;15.33;;
55720;SDS011;41626;53.098;6.168;2022-12-18T09:45:25;23.88;;;15.32;;
55720;SDS011;41626;53.098;6.168;2022-12-18T09:47:51;19.93;;;14.07;;
55720;SDS011;41626;53.098;6.168;2022-12-18T09:50:32;27.35;;;17.20;;
55720;SDS011;41626;53.098;6.168;2022-12-18T09:53:02;23.02;;;16.02;;
55720;SDS011;41626;53.098;6.168;2022-12-18T09:55:42;25.63;;;16.33;;
55720;SDS011;41626;53.098;6.168;2022-12-18T10:01:14;22.95;;;16.33;;
55720;SDS011;41626;53.098;6.168;2022-12-18T10:03:44;24.23;;;16.27;;
55720;SDS011;41626;53.098;6.168;2022-12-18T10:06:13;22.48;;;15.20;;
55720;SDS011;41626;53.098;6.168;2022-12-18T10:08:55;24.65;;;16.48;;
55720;SDS011;41626;53.098;6.168;2022-12-18T10:16:47;23.45;;;16.00;;
55720;SDS011;41626;53.098;6.168;2022-12-18T10:27:40;21.55;;;13.95;;
55720;SDS011;41626;53.098;6.168;2022-12-18T10:30:12;19.60;;;13.90;;
55720;SDS011;41626;53.098;6.168;2022-12-18T10:32:40;20.20;;;14.50;;
55720;SDS011;41626;53.098;6.168;2022-12-18T10:35:11;22.17;;;14.57;;
55720;SDS011;41626;53.098;6.168;2022-12-18T10:40:58;20.75;;;14.63;;
55720;SDS011;41626;53.098;6.168;2022-12-18T10:43:28;18.33;;;13.35;;
55720;SDS011;41626;53.098;6.168;2022-12-18T10:48:39;20.30;;;14.60;;
55720;SDS011;41626;53.098;6.168;2022-12-18T10:51:19;19.33;;;14.23;;
55720;SDS011;41626;53.098;6.168;2022-12-18T10:53:52;21.00;;;15.40;;
55720;SDS011;41626;53.098;6.168;2022-12-18T10:56:21;20.33;;;14.10;;
55720;SDS011;41626;53.098;6.168;2022-12-18T10:58:55;17.25;;;12.52;;
55720;SDS011;41626;53.098;6.168;2022-12-18T11:01:24;19.60;;;12.80;;
55720;SDS011;41626;53.098;6.168;2022-12-18T11:06:16;16.30;;;12.07;;
55720;SDS011;41626;53.098;6.168;2022-12-18T11:08:46;18.27;;;12.20;;
55720;SDS011;41626;53.098;6.168;2022-12-18T11:11:26;17.30;;;12.98;;
55720;SDS011;41626;53.098;6.168;2022-12-18T11:14:04;15.93;;;11.95;;
55720;SDS011;41626;53.098;6.168;2022-12-18T11:16:36;16.65;;;11.73;;
55720;SDS011;41626;53.098;6.168;2022-12-18T11:19:20;17.10;;;12.30;;
55720;SDS011;41626;53.098;6.168;2022-12-18T11:21:50;16.02;;;10.13;;
55720;SDS011;41626;53.098;6.168;2022-12-18T11:24:36;15.07;;;10.90;;
55720;SDS011;41626;53.098;6.168;2022-12-18T11:27:05;16.33;;;11.40;;
55720;SDS011;41626;53.098;6.168;2022-12-18T11:29:40;14.57;;;10.55;;
55720;SDS011;41626;53.098;6.168;2022-12-18T11:35:10;12.27;;;8.70;;
55720;SDS011;41626;53.098;6.168;2022-12-18T11:37:46;13.45;;;10.10;;
55720;SDS011;41626;53.098;6.168;2022-12-18T11:40:19;13.15;;;9.38;;
55720;SDS011;41626;53.098;6.168;2022-12-18T11:42:58;13.95;;;9.45;;
55720;SDS011;41626;53.098;6.168;2022-12-18T11:45:40;13.48;;;9.95;;
55720;SDS011;41626;53.098;6.168;2022-12-18T11:50:50;12.88;;;9.18;;
55720;SDS011;41626;53.098;6.168;2022-12-18T11:53:17;12.98;;;9.43;;
55720;SDS011;41626;53.098;6.168;2022-12-18T11:55:47;11.68;;;8.85;;
55720;SDS011;41626;53.098;6.168;2022-12-18T12:01:24;11.40;;;8.03;;
55720;SDS011;41626;53.098;6.168;2022-12-18T12:04:31;10.90;;;7.97;;
55720;SDS011;41626;53.098;6.168;2022-12-18T12:09:41;9.13;;;7.23;;
55720;SDS011;41626;53.098;6.168;2022-12-18T12:20:22;10.45;;;7.60;;
55720;SDS011;41626;53.098;6.168;2022-12-18T12:23:00;10.77;;;6.30;;
55720;SDS011;41626;53.098;6.168;2022-12-18T12:31:56;9.02;;;6.18;;
55720;SDS011;41626;53.098;6.168;2022-12-18T12:34:23;8.88;;;6.85;;
55720;SDS011;41626;53.098;6.168;2022-12-18T12:39:47;9.55;;;6.78;;
55720;SDS011;41626;53.098;6.168;2022-12-18T12:45:27;9.50;;;6.10;;
55720;SDS011;41626;53.098;6.168;2022-12-18T12:48:01;8.10;;;5.78;;
55720;SDS011;41626;53.098;6.168;2022-12-18T12:50:29;8.77;;;6.05;;
55720;SDS011;41626;53.098;6.168;2022-12-18T12:52:59;8.65;;;5.65;;
55720;SDS011;41626;53.098;6.168;2022-12-18T12:55:31;9.50;;;5.65;;
55720;SDS011;41626;53.098;6.168;2022-12-18T12:58:05;8.63;;;5.80;;
55720;SDS011;41626;53.098;6.168;2022-12-18T13:00:46;8.18;;;5.80;;
55720;SDS011;41626;53.098;6.168;2022-12-18T13:05:54;6.50;;;4.57;;
55720;SDS011;41626;53.098;6.168;2022-12-18T13:08:30;7.35;;;4.82;;
55720;SDS011;41626;53.098;6.168;2022-12-18T13:11:28;8.65;;;4.82;;
55720;SDS011;41626;53.098;6.168;2022-12-18T13:14:30;6.88;;;4.88;;
55720;SDS011;41626;53.098;6.168;2022-12-18T13:19:48;6.63;;;4.65;;
55720;SDS011;41626;53.098;6.168;2022-12-18T13:22:31;7.35;;;4.53;;
55720;SDS011;41626;53.098;6.168;2022-12-18T13:25:01;8.65;;;6.20;;
55720;SDS011;41626;53.098;6.168;2022-12-18T13:27:54;8.98;;;5.70;;
55720;SDS011;41626;53.098;6.168;2022-12-18T13:35:39;6.35;;;4.53;;
55720;SDS011;41626;53.098;6.168;2022-12-18T13:38:23;6.88;;;5.05;;
55720;SDS011;41626;53.098;6.168;2022-12-18T13:40:58;6.90;;;5.20;;
55720;SDS011;41626;53.098;6.168;2022-12-18T13:48:55;7.20;;;4.53;;
55720;SDS011;41626;53.098;6.168;2022-12-18T13:51:22;6.65;;;4.88;;
55720;SDS011;41626;53.098;6.168;2022-12-18T13:56:45;7.40;;;5.10;;
55720;SDS011;41626;53.098;6.168;2022-12-18T13:59:14;7.57;;;5.82;;
55720;SDS011;41626;53.098;6.168;2022-12-18T14:02:27;7.47;;;5.03;;
55720;SDS011;41626;53.098;6.168;2022-12-18T14:04:41;7.60;;;5.43;;
55720;SDS011;41626;53.098;6.168;2022-12-18T14:07:13;7.78;;;4.90;;
55720;SDS011;41626;53.098;6.168;2022-12-18T14:10:00;8.00;;;5.57;;
55720;SDS011;41626;53.098;6.168;2022-12-18T14:12:28;8.00;;;5.55;;
55720;SDS011;41626;53.098;6.168;2022-12-18T14:18:12;7.03;;;5.22;;
55720;SDS011;41626;53.098;6.168;2022-12-18T14:20:51;6.95;;;4.93;;
55720;SDS011;41626;53.098;6.168;2022-12-18T14:28:57;11.38;;;6.55;;
55720;SDS011;41626;53.098;6.168;2022-12-18T14:31:27;8.10;;;6.32;;
55720;SDS011;41626;53.098;6.168;2022-12-18T14:33:54;9.32;;;5.68;;
55720;SDS011;41626;53.098;6.168;2022-12-18T14:36:24;9.60;;;6.57;;
55720;SDS011;41626;53.098;6.168;2022-12-18T14:38:55;7.63;;;6.25;;
55720;SDS011;41626;53.098;6.168;2022-12-18T14:41:23;11.15;;;7.35;;
55720;SDS011;41626;53.098;6.168;2022-12-18T14:43:51;14.07;;;7.50;;
55720;SDS011;41626;53.098;6.168;2022-12-18T14:49:02;11.95;;;7.47;;
55720;SDS011;41626;53.098;6.168;2022-12-18T14:51:28;10.73;;;7.75;;
55720;SDS011;41626;53.098;6.168;2022-12-18T14:53:57;7.63;;;6.23;;
55720;SDS011;41626;53.098;6.168;2022-12-18T14:56:36;13.40;;;6.85;;
55720;SDS011;41626;53.098;6.168;2022-12-18T14:59:14;9.43;;;6.97;;
55720;SDS011;41626;53.098;6.168;2022-12-18T15:01:47;9.82;;;6.38;;
55720;SDS011;41626;53.098;6.168;2022-12-18T15:04:47;9.80;;;6.35;;
55720;SDS011;41626;53.098;6.168;2022-12-18T15:07:13;8.68;;;5.63;;
55720;SDS011;41626;53.098;6.168;2022-12-18T15:18:01;8.38;;;6.40;;
55720;SDS011;41626;53.098;6.168;2022-12-18T15:20:27;9.03;;;5.67;;
55720;SDS011;41626;53.098;6.168;2022-12-18T15:22:56;7.43;;;5.63;;
55720;SDS011;41626;53.098;6.168;2022-12-18T15:28:02;10.20;;;6.25;;
55720;SDS011;41626;53.098;6.168;2022-12-18T15:30:29;9.88;;;6.47;;
55720;SDS011;41626;53.098;6.168;2022-12-18T15:35:55;9.38;;;5.63;;
55720;SDS011;41626;53.098;6.168;2022-12-18T15:38:22;9.10;;;6.50;;
55720;SDS011;41626;53.098;6.168;2022-12-18T15:40:47;10.05;;;6.72;;
55720;SDS011;41626;53.098;6.168;2022-12-18T15:43:13;9.88;;;6.53;;
55720;SDS011;41626;53.098;6.168;2022-12-18T15:45:57;9.32;;;7.25;;
55720;SDS011;41626;53.098;6.168;2022-12-18T15:48:23;9.55;;;6.97;;
55720;SDS011;41626;53.098;6.168;2022-12-18T15:50:52;8.98;;;7.20;;
55720;SDS011;41626;53.098;6.168;2022-12-18T15:53:21;10.15;;;6.60;;
55720;SDS011;41626;53.098;6.168;2022-12-18T15:55:52;9.98;;;7.38;;
55720;SDS011;41626;53.098;6.168;2022-12-18T15:58:37;8.73;;;6.97;;
55720;SDS011;41626;53.098;6.168;2022-12-18T16:01:02;9.00;;;6.80;;
55720;SDS011;41626;53.098;6.168;2022-12-18T16:03:28;9.70;;;7.35;;
55720;SDS011;41626;53.098;6.168;2022-12-18T16:05:54;10.37;;;7.50;;
55720;SDS011;41626;53.098;6.168;2022-12-18T16:08:20;9.87;;;6.90;;
55720;SDS011;41626;53.098;6.168;2022-12-18T16:10:45;8.77;;;6.97;;
55720;SDS011;41626;53.098;6.168;2022-12-18T16:13:11;11.05;;;7.30;;
55720;SDS011;41626;53.098;6.168;2022-12-18T16:15:40;10.55;;;6.97;;
55720;SDS011;41626;53.098;6.168;2022-12-18T16:18:07;10.43;;;7.90;;
55720;SDS011;41626;53.098;6.168;2022-12-18T16:20:32;12.25;;;7.93;;
55720;SDS011;41626;53.098;6.168;2022-12-18T16:22:58;10.20;;;8.43;;
55720;SDS011;41626;53.098;6.168;2022-12-18T16:25:25;11.90;;;6.95;;
55720;SDS011;41626;53.098;6.168;2022-12-18T16:27:52;9.38;;;7.57;;
55720;SDS011;41626;53.098;6.168;2022-12-18T16:30:21;9.88;;;7.57;;
55720;SDS011;41626;53.098;6.168;2022-12-18T16:32:53;19.95;;;8.95;;
55720;SDS011;41626;53.098;6.168;2022-12-18T16:35:19;10.93;;;7.15;;
55720;SDS011;41626;53.098;6.168;2022-12-18T16:37:45;11.77;;;9.00;;
55720;SDS011;41626;53.098;6.168;2022-12-18T16:40:12;11.43;;;8.48;;
55720;SDS011;41626;53.098;6.168;2022-12-18T16:42:40;10.88;;;8.60;;
55720;SDS011;41626;53.098;6.168;2022-12-18T16:45:08;12.00;;;7.72;;
55720;SDS011;41626;53.098;6.168;2022-12-18T16:47:35;11.98;;;8.40;;
55720;SDS011;41626;53.098;6.168;2022-12-18T16:50:01;13.10;;;8.13;;
55720;SDS011;41626;53.098;6.168;2022-12-18T16:52:27;10.25;;;7.75;;
55720;SDS011;41626;53.098;6.168;2022-12-18T16:54:54;13.45;;;9.40;;
55720;SDS011;41626;53.098;6.168;2022-12-18T16:57:20;10.35;;;7.45;;
55720;SDS011;41626;53.098;6.168;2022-12-18T16:59:46;11.57;;;8.85;;